createdAt,value
2022-10-11T00:00:10.111Z,10.42
2022-10-11T00:02:36.668Z,10.45
2022-10-11T00:05:03.676Z,10.55
2022-10-11T00:07:30.418Z,10.62
2022-10-11T00:09:57.036Z,10.50
2022-10-11T00:12:23.572Z,10.48
2022-10-11T00:14:50.225Z,10.46
2022-10-11T00:17:16.796Z,10.49
2022-10-11T00:19:43.347Z,10.46
2022-10-11T00:22:10.053Z,10.33
2022-10-11T00:24:36.650Z,10.33
2022-10-11T00:33:08.873Z,10.35
2022-10-11T00:35:35.966Z,10.51
2022-10-11T00:38:02.967Z,10.29
2022-10-11T00:40:29.962Z,10.33
2022-10-11T00:42:56.858Z,10.33
2022-10-11T00:45:26.674Z,10.13
2022-10-11T00:48:00.674Z,10.27
2022-10-11T00:50:31.544Z,10.53
2022-10-11T00:53:03.482Z,10.19
2022-10-11T00:55:36.731Z,10.34
2022-10-11T00:58:03.613Z,10.34
2022-10-11T01:00:30.232Z,10.16
2022-10-11T01:02:57.083Z,10.23
2022-10-11T01:05:29.617Z,10.35
2022-10-11T01:07:59.098Z,10.33
2022-10-11T01:10:26.710Z,10.37
2022-10-11T01:13:25.508Z,10.47
2022-10-11T01:16:07.971Z,10.46
2022-10-11T01:18:44.273Z,10.17
2022-10-11T01:21:10.914Z,10.30
2022-10-11T01:23:46.397Z,10.24
2022-10-11T01:26:41.462Z,10.10
2022-10-11T01:29:26.427Z,9.99
2022-10-11T01:32:03.816Z,10.06
2022-10-11T01:34:52.986Z,10.15
2022-10-11T01:37:28.319Z,9.90
2022-10-11T01:40:02.522Z,10.16
2022-10-11T01:42:30.227Z,10.20
2022-10-11T01:44:58.821Z,10.25
2022-10-11T01:47:26.193Z,10.44
2022-10-11T01:49:57.150Z,10.11
2022-10-11T01:52:26.605Z,10.03
2022-10-11T01:55:09.891Z,10.14
2022-10-11T01:57:42.882Z,10.18
2022-10-11T02:00:22.795Z,9.88
2022-10-11T02:03:19.491Z,10.03
2022-10-11T02:06:01.135Z,9.98
2022-10-11T02:08:53.110Z,9.99
2022-10-11T02:11:27.635Z,9.79
2022-10-11T02:14:03.483Z,10.23
2022-10-11T02:17:04.020Z,9.95
2022-10-11T02:19:36.754Z,10.27
2022-10-11T02:22:08.411Z,10.13
2022-10-11T02:24:38.151Z,10.09
2022-10-11T02:27:06.112Z,10.06
2022-10-11T02:29:37.819Z,9.96
2022-10-11T02:32:05.967Z,10.07
2022-10-11T02:34:40.102Z,10.07
2022-10-11T02:37:21.561Z,9.88
2022-10-11T02:40:02.520Z,9.86
2022-10-11T02:42:37.117Z,9.90
2022-10-11T02:45:12.099Z,9.94
2022-10-11T02:47:40.813Z,10.24
2022-10-11T02:50:07.833Z,10.04
2022-10-11T02:52:34.391Z,10.10
2022-10-11T02:55:00.939Z,9.86
2022-10-11T02:57:27.471Z,9.92
2022-10-11T02:59:54.063Z,9.84
2022-10-11T03:02:20.735Z,9.87
2022-10-11T03:04:47.540Z,9.81
2022-10-11T03:07:14.745Z,9.91
2022-10-11T03:09:41.376Z,9.88
2022-10-11T03:12:08.263Z,9.83
2022-10-11T03:14:34.799Z,9.88
2022-10-11T03:17:23.851Z,9.77
2022-10-11T03:19:48.325Z,9.97
2022-10-11T03:22:14.897Z,9.68
2022-10-11T03:24:41.488Z,9.72
2022-10-11T03:27:08.049Z,9.55
2022-10-11T03:29:34.599Z,9.90
2022-10-11T03:32:01.239Z,9.86
2022-10-11T03:34:27.877Z,9.73
2022-10-11T03:36:54.510Z,9.83
2022-10-11T03:39:22.705Z,9.87
2022-10-11T03:41:49.365Z,9.78
2022-10-11T03:44:16.005Z,9.84
2022-10-11T03:46:42.602Z,9.78
2022-10-11T03:49:09.225Z,9.89
2022-10-11T03:51:36.418Z,9.81
2022-10-11T03:54:03.100Z,9.90
2022-10-11T03:56:29.636Z,9.52
2022-10-11T03:58:56.278Z,9.68
2022-10-11T04:01:22.893Z,9.42
2022-10-11T04:03:49.539Z,9.72
2022-10-11T04:06:16.189Z,9.41
2022-10-11T04:08:42.793Z,9.90
2022-10-11T04:11:09.420Z,9.51
2022-10-11T04:13:36.434Z,9.51
2022-10-11T04:16:03.461Z,9.68
2022-10-11T04:18:30.365Z,9.54
2022-10-11T04:20:56.961Z,9.48
2022-10-11T04:23:23.667Z,9.37
2022-10-11T04:25:50.333Z,9.38
2022-10-11T04:28:16.919Z,9.37
2022-10-11T04:30:43.825Z,9.56
2022-10-11T04:33:11.517Z,9.16
2022-10-11T04:35:38.385Z,9.28
2022-10-11T04:38:05.000Z,9.41
2022-10-11T04:40:32.550Z,9.26
2022-10-11T04:42:59.111Z,8.97
2022-10-11T04:45:26.297Z,9.54
2022-10-11T04:47:52.891Z,9.35
2022-10-11T04:50:19.557Z,9.66
2022-10-11T04:52:46.813Z,9.58
2022-10-11T04:55:14.178Z,9.42
2022-10-11T04:57:40.768Z,9.67
2022-10-11T05:00:07.986Z,9.66
2022-10-11T05:02:34.627Z,9.80
2022-10-11T05:05:01.262Z,9.74
2022-10-11T05:07:27.844Z,9.27
2022-10-11T05:09:54.602Z,9.01
2022-10-11T05:12:21.158Z,9.58
2022-10-11T05:14:47.761Z,9.21
2022-10-11T05:17:14.381Z,9.37
2022-10-11T05:19:41.043Z,8.97
2022-10-11T05:22:07.638Z,9.48
2022-10-11T05:24:34.302Z,9.07
2022-10-11T05:27:03.323Z,9.23
2022-10-11T05:29:30.259Z,9.00
2022-10-11T05:31:56.905Z,8.95
2022-10-11T05:34:23.406Z,8.82
2022-10-11T05:36:50.065Z,8.76
2022-10-11T05:39:16.601Z,8.64
2022-10-11T05:41:43.280Z,8.59
2022-10-11T05:44:09.870Z,8.86
2022-10-11T05:46:36.524Z,8.82
2022-10-11T05:49:03.219Z,8.80
2022-10-11T05:51:29.848Z,9.10
2022-10-11T05:53:56.454Z,8.79
2022-10-11T05:56:24.994Z,9.06
2022-10-11T05:58:52.281Z,8.95
2022-10-11T06:01:23.138Z,8.97
2022-10-11T06:03:50.717Z,8.92
2022-10-11T06:06:17.964Z,9.31
2022-10-11T06:08:45.453Z,9.05
2022-10-11T06:11:13.319Z,9.19
2022-10-11T06:13:40.855Z,9.50
2022-10-11T06:16:08.234Z,9.21
2022-10-11T06:18:35.001Z,9.23
2022-10-11T06:21:01.826Z,9.39
2022-10-11T06:23:28.546Z,9.30
2022-10-11T06:26:11.437Z,9.45
2022-10-11T06:28:58.949Z,9.26
2022-10-11T06:31:25.806Z,9.53
2022-10-11T06:33:52.444Z,9.33
2022-10-11T06:36:19.173Z,9.23
2022-10-11T06:38:45.850Z,9.46
2022-10-11T06:41:21.095Z,9.92
2022-10-11T06:43:49.894Z,9.68
2022-10-11T06:46:17.863Z,9.46
2022-10-11T06:48:45.897Z,9.51
2022-10-11T06:51:14.456Z,9.66
2022-10-11T06:53:41.258Z,9.37
2022-10-11T06:56:11.415Z,9.33
2022-10-11T06:58:39.303Z,9.80
2022-10-11T07:01:10.409Z,10.01
2022-10-11T07:03:37.538Z,9.66
2022-10-11T07:06:10.617Z,9.89
2022-10-11T07:08:38.252Z,9.74
2022-10-11T07:11:17.891Z,9.88
2022-10-11T07:13:49.864Z,10.16
2022-10-11T07:16:16.925Z,9.86
2022-10-11T07:18:43.570Z,9.63
2022-10-11T07:21:15.674Z,9.68
2022-10-11T07:23:42.700Z,9.60
2022-10-11T07:26:10.979Z,9.80
2022-10-11T07:28:38.549Z,9.81
2022-10-11T07:31:26.930Z,10.42
2022-10-11T07:33:53.809Z,10.04
2022-10-11T07:36:20.650Z,10.26
2022-10-11T07:38:50.345Z,10.05
2022-10-11T07:41:17.452Z,10.52
2022-10-11T07:43:46.910Z,10.19
2022-10-11T07:46:14.217Z,9.78
2022-10-11T07:48:40.925Z,10.20
2022-10-11T07:51:11.623Z,10.16
2022-10-11T07:53:42.959Z,10.46
2022-10-11T07:56:14.895Z,10.57
2022-10-11T07:58:42.588Z,10.62
2022-10-11T08:01:10.619Z,10.54
2022-10-11T08:03:38.082Z,10.44
2022-10-11T08:06:07.698Z,10.94
2022-10-11T08:08:35.556Z,10.19
2022-10-11T08:11:02.266Z,10.86
2022-10-11T08:13:29.054Z,10.61
2022-10-11T08:15:55.633Z,10.77
2022-10-11T08:18:22.403Z,10.71
2022-10-11T08:20:48.963Z,11.04
2022-10-11T08:23:16.856Z,10.64
2022-10-11T08:25:47.508Z,10.58
2022-10-11T08:28:18.533Z,10.91
2022-10-11T08:30:54.267Z,10.97
2022-10-11T08:33:23.015Z,10.91
2022-10-11T08:35:50.475Z,10.97
2022-10-11T08:38:18.002Z,11.40
2022-10-11T08:40:49.596Z,10.72
2022-10-11T08:43:28.366Z,10.88
2022-10-11T08:45:58.554Z,11.52
2022-10-11T08:48:41.989Z,11.42
2022-10-11T08:51:24.930Z,11.40
2022-10-11T08:54:12.567Z,11.62
2022-10-11T08:56:41.746Z,11.65
2022-10-11T08:59:11.229Z,11.66
2022-10-11T09:01:44.638Z,11.06
2022-10-11T09:04:14.745Z,11.22
2022-10-11T09:06:55.631Z,11.11
2022-10-11T09:09:48.850Z,11.44
2022-10-11T09:12:32.303Z,11.37
2022-10-11T09:15:03.169Z,11.53
2022-10-11T09:17:42.877Z,11.50
2022-10-11T09:20:18.169Z,11.51
2022-10-11T09:23:11.598Z,11.60
2022-10-11T09:25:49.392Z,11.63
2022-10-11T09:28:35.147Z,11.85
2022-10-11T09:31:01.954Z,11.81
2022-10-11T09:33:31.369Z,11.81
2022-10-11T09:35:58.608Z,11.79
2022-10-11T09:38:37.345Z,11.98
2022-10-11T09:41:15.029Z,11.73
2022-10-11T09:43:46.046Z,12.06
2022-10-11T09:46:30.865Z,12.24
2022-10-11T09:49:00.714Z,11.99
2022-10-11T09:51:28.120Z,12.17
2022-10-11T09:54:04.309Z,12.44
2022-10-11T09:56:33.673Z,12.57
2022-10-11T09:59:21.971Z,12.41
2022-10-11T10:01:49.044Z,12.55
2022-10-11T10:04:18.954Z,12.54
2022-10-11T10:06:45.678Z,12.79
2022-10-11T10:09:24.586Z,13.09
2022-10-11T10:11:51.685Z,12.82
2022-10-11T10:14:30.435Z,12.94
2022-10-11T10:17:06.554Z,12.95
2022-10-11T10:19:44.710Z,13.00
2022-10-11T10:22:21.210Z,12.54
2022-10-11T10:24:50.566Z,13.20
2022-10-11T10:27:21.605Z,13.09
2022-10-11T10:30:09.483Z,13.04
2022-10-11T10:32:57.872Z,13.02
2022-10-11T10:35:27.508Z,13.29
2022-10-11T10:38:01.011Z,13.62
2022-10-11T10:40:37.642Z,13.70
2022-10-11T10:43:04.354Z,13.48
2022-10-11T10:46:28.905Z,13.30
2022-10-11T10:52:03.159Z,13.05
2022-10-11T10:54:35.478Z,13.13
2022-10-11T10:57:11.313Z,13.50
2022-10-11T10:59:53.154Z,13.30
2022-10-11T11:02:40.645Z,13.77
2022-10-11T11:05:40.811Z,13.47
2022-10-11T11:08:16.593Z,13.74
2022-10-11T11:10:55.790Z,13.52
2022-10-11T11:13:41.404Z,13.84
2022-10-11T11:16:13.198Z,13.52
2022-10-11T11:19:03.816Z,13.25
2022-10-11T11:21:59.344Z,13.35
2022-10-11T11:24:28.553Z,13.67
2022-10-11T11:27:23.811Z,13.65
2022-10-11T11:30:03.456Z,13.50
2022-10-11T11:32:45.548Z,13.28
2022-10-11T11:35:43.939Z,13.07
2022-10-11T11:38:20.890Z,13.60
2022-10-11T11:40:58.488Z,13.56
2022-10-11T11:43:39.445Z,13.56
2022-10-11T11:46:16.001Z,13.67
2022-10-11T11:48:43.973Z,13.38
2022-10-11T11:51:26.490Z,13.44
2022-10-11T11:53:59.096Z,13.69
2022-10-11T11:56:44.542Z,13.34
2022-10-11T11:59:14.049Z,13.53
2022-10-11T12:01:48.025Z,13.76
2022-10-11T12:04:31.188Z,13.71
2022-10-11T12:07:18.567Z,13.32
2022-10-11T12:09:52.654Z,13.58
2022-10-11T12:12:37.377Z,13.52
2022-10-11T12:15:10.204Z,13.86
2022-10-11T12:17:54.779Z,14.40
2022-10-11T12:20:21.325Z,13.94
2022-10-11T12:22:53.860Z,13.94
2022-10-11T12:25:23.872Z,14.07
2022-10-11T12:27:56.589Z,14.31
2022-10-11T12:30:48.112Z,14.50
2022-10-11T12:33:22.764Z,14.48
2022-10-11T12:35:55.546Z,14.53
2022-10-11T12:38:39.987Z,14.98
2022-10-11T12:41:09.477Z,15.93
2022-10-11T12:44:15.019Z,16.65
2022-10-11T12:46:57.847Z,15.81
2022-10-11T12:49:36.850Z,17.00
2022-10-11T12:52:22.389Z,16.81
2022-10-11T12:55:01.088Z,16.49
2022-10-11T12:57:56.081Z,15.05
2022-10-11T13:00:30.833Z,15.55
2022-10-11T13:03:33.308Z,16.83
2022-10-11T13:06:09.995Z,16.61
2022-10-11T13:08:40.756Z,17.24
2022-10-11T13:11:17.490Z,17.26
2022-10-11T13:13:49.118Z,17.22
2022-10-11T13:16:21.425Z,17.14
2022-10-11T13:18:53.672Z,15.58
2022-10-11T13:21:27.175Z,14.36
2022-10-11T13:24:03.770Z,14.18
2022-10-11T13:26:31.717Z,13.76
2022-10-11T13:29:00.192Z,14.43
2022-10-11T13:31:27.797Z,14.25
2022-10-11T13:33:56.870Z,13.82
2022-10-11T13:36:26.924Z,14.11
2022-10-11T13:38:59.187Z,14.37
2022-10-11T13:41:28.238Z,14.63
2022-10-11T13:43:56.770Z,14.24
2022-10-11T13:46:28.417Z,14.49
2022-10-11T13:49:06.595Z,14.43
2022-10-11T13:51:35.495Z,14.61
2022-10-11T13:54:11.771Z,14.85
2022-10-11T13:56:49.529Z,14.89
2022-10-11T13:59:22.926Z,14.37
2022-10-11T14:01:54.214Z,14.52
2022-10-11T14:04:22.031Z,14.81
2022-10-11T14:07:02.412Z,14.68
2022-10-11T14:09:31.329Z,14.20
2022-10-11T14:12:29.120Z,13.68
2022-10-11T14:14:55.679Z,13.55
2022-10-11T14:17:32.779Z,13.32
2022-10-11T14:20:11.875Z,13.01
2022-10-11T14:22:38.947Z,12.81
2022-10-11T14:25:05.848Z,12.80
2022-10-11T14:27:32.877Z,12.76
2022-10-11T14:30:24.658Z,13.04
2022-10-11T14:32:49.498Z,13.05
2022-10-11T14:35:18.361Z,13.23
2022-10-11T14:37:45.927Z,12.96
2022-10-11T14:40:16.642Z,13.32
2022-10-11T14:42:43.942Z,12.86
2022-10-11T14:45:11.122Z,12.93
2022-10-11T14:47:42.758Z,12.94
2022-10-11T14:50:37.650Z,12.97
2022-10-11T14:53:05.882Z,12.85
2022-10-11T14:55:32.571Z,12.96
2022-10-11T14:57:59.148Z,13.22
2022-10-11T15:00:27.647Z,13.20
2022-10-11T15:02:55.315Z,13.26
2022-10-11T15:05:24.105Z,13.23
2022-10-11T15:07:50.862Z,12.94
2022-10-11T15:10:30.284Z,13.07
2022-10-11T15:12:58.051Z,12.94
2022-10-11T15:15:30.347Z,13.07
2022-10-11T15:17:58.930Z,12.91
2022-10-11T15:20:35.159Z,12.86
2022-10-11T15:23:01.842Z,12.91
2022-10-11T15:25:29.256Z,13.05
2022-10-11T15:27:56.450Z,12.82
2022-10-11T15:30:41.887Z,13.02
2022-10-11T15:33:08.546Z,12.71
2022-10-11T15:35:35.122Z,12.91
2022-10-11T15:38:01.707Z,12.54
2022-10-11T15:40:35.866Z,12.86
2022-10-11T15:43:03.087Z,12.91
2022-10-11T15:45:29.723Z,12.84
2022-10-11T15:47:56.926Z,12.64
2022-10-11T15:50:43.735Z,12.84
2022-10-11T15:53:26.328Z,13.09
2022-10-11T15:55:55.242Z,12.84
2022-10-11T15:58:27.462Z,12.78
2022-10-11T16:00:56.001Z,12.74
2022-10-11T16:03:25.469Z,12.88
2022-10-11T16:05:53.639Z,12.76
2022-10-11T16:08:20.821Z,13.02
2022-10-11T16:10:47.606Z,13.03
2022-10-11T16:13:14.476Z,12.92
2022-10-11T16:15:42.969Z,12.60
2022-10-11T16:18:12.694Z,12.84
2022-10-11T16:20:44.841Z,12.66
2022-10-11T16:23:12.841Z,12.91
2022-10-11T16:25:41.194Z,12.60
2022-10-11T16:28:09.252Z,12.77
2022-10-11T16:30:39.509Z,12.80
2022-10-11T16:33:06.157Z,12.59
2022-10-11T16:35:32.911Z,12.82
2022-10-11T16:38:00.918Z,12.82
2022-10-11T16:40:29.909Z,12.67
2022-10-11T16:42:56.533Z,12.90
2022-10-11T16:45:23.508Z,12.94
2022-10-11T16:47:50.204Z,12.35
2022-10-11T16:50:16.739Z,12.36
2022-10-11T16:52:43.281Z,12.34
2022-10-11T16:55:09.887Z,12.49
2022-10-11T16:57:37.776Z,12.33
2022-10-11T17:00:09.206Z,12.37
2022-10-11T17:02:36.680Z,12.44
2022-10-11T17:05:03.877Z,12.44
2022-10-11T17:07:31.299Z,12.31
2022-10-11T17:09:58.272Z,12.43
2022-10-11T17:12:24.986Z,12.50
2022-10-11T17:14:51.541Z,12.04
2022-10-11T17:17:20.613Z,12.25
2022-10-11T17:19:47.627Z,12.05
2022-10-11T17:22:17.668Z,12.20
2022-10-11T17:24:45.101Z,12.00
2022-10-11T17:27:11.674Z,11.85
2022-10-11T17:29:38.688Z,12.00
2022-10-11T17:32:05.697Z,11.98
2022-10-11T17:34:32.459Z,12.05
2022-10-11T17:36:59.098Z,12.15
2022-10-11T17:39:25.828Z,12.18
2022-10-11T17:41:52.773Z,12.07
2022-10-11T17:44:20.096Z,11.73
2022-10-11T17:46:47.502Z,11.86
2022-10-11T17:49:14.074Z,12.11
2022-10-11T17:51:41.578Z,11.86
2022-10-11T17:54:13.262Z,11.74
2022-10-11T17:56:41.634Z,11.94
2022-10-11T17:59:14.384Z,11.63
2022-10-11T18:01:41.148Z,12.00
2022-10-11T18:04:13.383Z,11.98
2022-10-11T18:06:40.097Z,11.81
2022-10-11T18:09:07.144Z,11.76
2022-10-11T18:11:34.064Z,11.96
2022-10-11T18:14:00.841Z,11.74
2022-10-11T18:16:29.645Z,11.91
2022-10-11T18:18:57.448Z,11.69
2022-10-11T18:21:33.726Z,11.70
2022-10-11T18:24:03.114Z,11.85
2022-10-11T18:26:30.920Z,11.83
2022-10-11T18:28:58.655Z,11.95
2022-10-11T18:31:28.639Z,11.89
2022-10-11T18:33:55.695Z,11.83
2022-10-11T18:36:25.561Z,11.53
2022-10-11T18:38:54.917Z,11.61
2022-10-11T18:41:23.472Z,11.62
2022-10-11T18:43:52.130Z,11.65
2022-10-11T18:46:19.537Z,11.63
2022-10-11T18:48:48.596Z,11.77
2022-10-11T18:51:23.857Z,11.65
2022-10-11T18:53:51.503Z,11.72
2022-10-11T18:56:21.726Z,11.57
2022-10-11T18:58:50.254Z,11.58
2022-10-11T19:01:23.776Z,11.43
2022-10-11T19:03:53.126Z,11.48
2022-10-11T19:06:22.497Z,11.54
2022-10-11T19:08:52.841Z,11.54
2022-10-11T19:11:25.229Z,11.45
2022-10-11T19:13:57.185Z,11.47
2022-10-11T19:16:24.616Z,11.36
2022-10-11T19:18:52.299Z,11.41
2022-10-11T19:21:19.617Z,11.31
2022-10-11T19:23:47.809Z,11.45
2022-10-11T19:26:18.723Z,11.32
2022-10-11T19:28:47.053Z,11.39
2022-10-11T19:31:16.839Z,11.39
2022-10-11T19:33:45.237Z,11.20
2022-10-11T19:36:13.933Z,11.24
2022-10-11T19:38:45.473Z,11.20
2022-10-11T19:41:13.199Z,11.17
2022-10-11T19:43:39.824Z,10.98
2022-10-11T19:46:09.999Z,10.98
2022-10-11T19:48:42.708Z,11.20
2022-10-11T19:51:18.619Z,11.15
2022-10-11T19:53:46.065Z,11.04
2022-10-11T19:56:15.958Z,11.08
2022-10-11T19:58:43.020Z,10.97
2022-10-11T20:01:17.539Z,11.08
2022-10-11T20:03:47.050Z,11.02
2022-10-11T20:06:14.439Z,10.97
2022-10-11T20:08:40.990Z,11.11
2022-10-11T20:11:09.265Z,10.89
2022-10-11T20:13:37.268Z,10.96
2022-10-11T20:16:10.311Z,11.09
2022-10-11T20:18:37.858Z,11.08
2022-10-11T20:21:07.769Z,11.18
2022-10-11T20:23:35.627Z,11.00
2022-10-11T20:26:15.853Z,11.05
2022-10-11T20:28:43.797Z,10.95
2022-10-11T20:31:16.338Z,11.02
2022-10-11T20:33:42.972Z,11.10
2022-10-11T20:36:12.062Z,11.15
2022-10-11T20:38:41.058Z,11.22
2022-10-11T20:41:22.300Z,11.18
2022-10-11T20:43:54.281Z,11.15
2022-10-11T20:46:23.936Z,11.26
2022-10-11T20:48:55.513Z,11.11
2022-10-11T20:51:26.302Z,11.15
2022-10-11T20:53:53.488Z,11.13
2022-10-11T20:56:21.298Z,11.21
2022-10-11T20:58:52.132Z,11.27
2022-10-11T21:01:21.074Z,11.31
2022-10-11T21:03:47.682Z,10.95
2022-10-11T21:06:14.429Z,10.91
2022-10-11T21:08:41.233Z,10.51
2022-10-11T21:11:08.643Z,10.43
2022-10-11T21:13:36.037Z,10.79
2022-10-11T21:16:04.625Z,10.96
2022-10-11T21:18:31.143Z,10.71
2022-10-11T21:20:57.760Z,10.78
2022-10-11T21:23:24.331Z,10.67
2022-10-11T21:25:51.078Z,10.96
2022-10-11T21:28:17.655Z,11.02
2022-10-11T21:30:44.137Z,10.93
2022-10-11T21:33:13.191Z,10.65
2022-10-11T21:35:40.393Z,10.32
2022-10-11T21:38:07.144Z,10.39
2022-10-11T21:40:37.805Z,10.61
2022-10-11T21:43:04.406Z,10.68
2022-10-11T21:45:30.947Z,10.65
2022-10-11T21:47:57.505Z,10.82
2022-10-11T21:50:24.065Z,10.92
2022-10-11T21:52:50.673Z,10.83
2022-10-11T21:55:17.239Z,10.81
2022-10-11T21:57:43.902Z,10.65
2022-10-11T22:00:11.206Z,10.60
2022-10-11T22:02:40.428Z,10.71
2022-10-11T22:05:07.105Z,10.84
2022-10-11T22:07:33.746Z,10.75
2022-10-11T22:10:00.374Z,10.88
2022-10-11T22:12:26.895Z,10.94
2022-10-11T22:14:53.461Z,10.81
2022-10-11T22:17:20.139Z,10.68
2022-10-11T22:19:46.678Z,10.61
2022-10-11T22:22:13.425Z,10.69
2022-10-11T22:24:40.014Z,10.64
2022-10-11T22:27:06.605Z,10.63
2022-10-11T22:29:34.317Z,10.69
2022-10-11T22:32:01.327Z,10.64
2022-10-11T22:34:31.702Z,10.67
2022-10-11T22:36:58.504Z,10.75
2022-10-11T22:39:25.178Z,10.72
2022-10-11T22:41:54.422Z,10.75
2022-10-11T22:44:21.300Z,10.63
2022-10-11T22:46:47.935Z,10.57
2022-10-11T22:49:14.459Z,10.68
2022-10-11T22:51:40.930Z,10.78
2022-10-11T22:54:07.492Z,10.48
2022-10-11T22:56:34.033Z,10.56
2022-10-11T22:59:00.581Z,10.61
2022-10-11T23:01:27.195Z,10.84
2022-10-11T23:03:53.930Z,10.86
2022-10-11T23:06:20.642Z,10.57
2022-10-11T23:08:47.359Z,10.39
2022-10-11T23:11:14.022Z,10.10
2022-10-11T23:13:40.613Z,10.29
2022-10-11T23:16:09.711Z,10.15
2022-10-11T23:18:36.842Z,10.20
2022-10-11T23:21:04.708Z,10.29
2022-10-11T23:23:31.277Z,10.37
2022-10-11T23:26:11.527Z,10.31
2022-10-11T23:28:38.224Z,10.34
2022-10-11T23:31:11.493Z,10.33
2022-10-11T23:33:38.509Z,10.18
2022-10-11T23:36:05.627Z,10.50
2022-10-11T23:38:32.505Z,10.71
2022-10-11T23:40:59.379Z,10.55
2022-10-11T23:43:25.925Z,10.76
2022-10-11T23:45:54.005Z,10.66
2022-10-11T23:48:20.555Z,10.75
2022-10-11T23:50:47.120Z,10.84
2022-10-11T23:53:13.782Z,10.80
2022-10-11T23:55:40.597Z,10.85
2022-10-11T23:58:07.179Z,10.82
